KCBM

Columbus AFB Airport

Columbus, Mississippi, USA
METAR KCBM 160356Z AUTO 27004KT 10SM OVC010 09/08 A3010 RMK AO2 CIG 009 RWY31C SLP196 T00900076
Observed Flight Rules
Dec-16 @ 03:56 UTC (9 minutes ago) Marginal Visual Flight Rules
Wind Visibility Clouds
270° at 4 knots 10 miles
  • Overcast at 1,000' AGL
Temperatures Readings
Current 9°C / 48°F
Dewpoint 8°C / 46°F
Humidity 94%
Altimeter 30.1" Hg
Pressure 1019.6 hPa
Elevation 67
METAR KCBM 160356Z AUTO 27004KT 10SM OVC010 09/08 A3010 RMK AO2 CIG 009 RWY31C SLP196 T00900076
Observed Flight Rules
Dec-16 @ 03:56 UTC
(9 minutes ago)
MVFR
Wind Visibility
270° at 4 knots 10 miles
Clouds
  • Overcast at 1,000' AGL
Temperature Dewpoint
9°C / 48°F 8°C / 46°F
Humidity Altimeter Pressure
94% 30.1" Hg 1019.6 hPa